Time;durP1;ratioP1;P1;durP2;ratioP2;P2;SDS_P1;SDS_P2;PMS_P1;PMS_P2;Temp;Humidity;BMP_temperature;BMP_pressure;BME280_temperature;BME280_humidity;BME280_pressure;Samples;Min_cycle;Max_cycle;Signal;HPM_P1;HPM_P2
2022/07/10 00:00:31;;;;;;;1.30;1.20;;;19.10;59.20;;;;;;4884383;29;20208;-65
2022/07/10 00:02:58;;;;;;;6.43;1.83;;;19.10;59.90;;;;;;4869721;29;20199;-65
2022/07/10 00:05:25;;;;;;;1.23;1.03;;;19.20;60.20;;;;;;4868124;29;20234;-65
2022/07/10 00:07:51;;;;;;;1.03;1.03;;;19.20;59.40;;;;;;4877588;29;20223;-65
2022/07/10 00:10:18;;;;;;;1.37;1.07;;;19.20;59.50;;;;;;4864013;29;20197;-65
2022/07/10 00:12:45;;;;;;;1.00;0.90;;;19.30;59.10;;;;;;4859211;29;20196;-65
2022/07/10 00:15:11;;;;;;;1.40;1.30;;;19.30;59.20;;;;;;4884057;29;20228;-65
2022/07/10 00:17:39;;;;;;;1.37;1.17;;;19.30;59.40;;;;;;4873971;29;20192;-65
2022/07/10 00:20:06;;;;;;;1.10;1.00;;;19.30;60.30;;;;;;4883100;29;20306;-65
2022/07/10 00:22:34;;;;;;;1.43;1.30;;;19.20;59.80;;;;;;4883715;29;20254;-65
2022/07/10 00:25:01;;;;;;;1.07;0.97;;;19.30;61.00;;;;;;4883433;29;20192;-65
2022/07/10 00:27:26;;;;;;;3.00;1.07;;;19.20;61.00;;;;;;4869568;29;20204;-65
2022/07/10 00:29:52;;;;;;;2.90;1.20;;;19.10;60.20;;;;;;4849451;29;20254;-65
2022/07/10 00:32:18;;;;;;;1.40;1.30;;;19.10;60.40;;;;;;4854847;29;20236;-65
2022/07/10 00:34:43;;;;;;;2.33;1.27;;;19.10;60.70;;;;;;4875972;29;20203;-65
2022/07/10 00:37:09;;;;;;;2.50;1.30;;;19.20;61.70;;;;;;4852307;29;20200;-65
2022/07/10 00:39:35;;;;;;;1.50;1.10;;;19.20;61.30;;;;;;4852372;29;20359;-65
2022/07/10 00:42:13;;;;;;;1.40;1.30;;;19.20;61.30;;;;;;4867947;29;20261;-65
2022/07/10 00:44:39;;;;;;;1.17;1.07;;;19.10;62.30;;;;;;4870418;29;20203;-65
2022/07/10 00:47:06;;;;;;;1.53;1.43;;;19.20;62.80;;;;;;4867805;29;20227;-65
2022/07/10 00:49:33;;;;;;;0.97;0.97;;;19.20;63.40;;;;;;4866837;29;20230;-65
2022/07/10 00:52:02;;;;;;;1.20;1.10;;;19.10;63.20;;;;;;4881759;29;20211;-65
2022/07/10 00:54:30;;;;;;;1.10;1.00;;;19.10;63.50;;;;;;4883353;29;20268;-65
2022/07/10 00:56:56;;;;;;;2.07;1.27;;;19.10;63.20;;;;;;4876617;29;20192;-65
2022/07/10 00:59:23;;;;;;;1.40;1.30;;;19.00;64.20;;;;;;4879322;29;20207;-65
2022/07/10 01:01:50;;;;;;;1.57;1.17;;;19.00;64.60;;;;;;4867344;29;20200;-65
2022/07/10 01:04:16;;;;;;;2.30;1.40;;;19.00;64.10;;;;;;4882892;29;20328;-65
2022/07/10 01:06:42;;;;;;;1.17;1.00;;;18.90;64.90;;;;;;4862309;29;20249;-65
2022/07/10 01:09:07;;;;;;;1.40;1.30;;;18.90;64.90;;;;;;4851707;29;20300;-65
2022/07/10 01:11:34;;;;;;;2.30;1.20;;;18.80;65.70;;;;;;4850961;29;20208;-65
2022/07/10 01:14:01;;;;;;;1.53;1.13;;;18.80;65.90;;;;;;4882052;29;20204;-65
2022/07/10 01:16:27;;;;;;;1.83;1.10;;;18.80;65.80;;;;;;4851149;29;20208;-65
2022/07/10 01:18:53;;;;;;;2.20;1.30;;;18.80;66.60;;;;;;4866387;29;20224;-65
2022/07/10 01:21:27;;;;;;;1.40;1.30;;;18.70;66.70;;;;;;4863340;29;20424;-65
2022/07/10 01:23:53;;;;;;;2.43;1.20;;;18.70;66.90;;;;;;4876991;29;20192;-65
2022/07/10 01:26:21;;;;;;;1.93;1.00;;;18.70;67.10;;;;;;4895641;29;20198;-65
2022/07/10 01:28:53;;;;;;;1.60;1.30;;;18.70;66.60;;;;;;4860395;29;20334;-65
2022/07/10 01:31:28;;;;;;;2.60;1.30;;;18.70;66.10;;;;;;4858398;29;20205;-65
2022/07/10 01:33:55;;;;;;;1.20;1.20;;;18.70;65.30;;;;;;4882269;29;20192;-65
2022/07/10 01:36:22;;;;;;;0.97;0.97;;;18.70;65.00;;;;;;4881417;29;20199;-65
2022/07/10 01:38:50;;;;;;;1.20;1.10;;;18.60;66.70;;;;;;4882255;29;20211;-65
2022/07/10 01:41:16;;;;;;;1.40;1.23;;;18.50;67.80;;;;;;4864181;29;20204;-65
2022/07/10 01:43:43;;;;;;;2.90;1.20;;;18.50;67.50;;;;;;4864064;29;20189;-65
2022/07/10 01:46:10;;;;;;;1.30;1.20;;;18.50;67.70;;;;;;4878878;29;20201;-65
2022/07/10 01:48:37;;;;;;;1.93;1.43;;;18.40;67.10;;;;;;4864668;29;20346;-65
2022/07/10 01:51:03;;;;;;;1.83;1.30;;;18.30;67.70;;;;;;4863861;29;20213;-65
2022/07/10 01:53:29;;;;;;;1.57;1.20;;;18.30;67.90;;;;;;4864907;29;20196;-65
2022/07/10 01:55:55;;;;;;;1.53;1.40;;;18.30;68.10;;;;;;4874974;29;20203;-65
2022/07/10 01:58:21;;;;;;;1.70;1.10;;;18.30;67.40;;;;;;4881526;29;20219;-65
2022/07/10 02:00:47;;;;;;;1.30;1.20;;;18.20;67.10;;;;;;4851509;29;20196;-65
2022/07/10 02:05:56;;;;;;;1.90;1.30;;;18.20;68.10;;;;;;4871636;29;20198;-65
2022/07/10 02:08:22;;;;;;;1.67;1.50;;;18.20;68.70;;;;;;4866660;29;20200;-65
2022/07/10 02:10:48;;;;;;;1.43;1.30;;;18.20;69.10;;;;;;4851219;29;20203;-65
2022/07/10 02:13:14;;;;;;;1.67;1.30;;;18.20;69.40;;;;;;4866624;29;20293;-65
2022/07/10 02:15:41;;;;;;;3.13;1.40;;;18.20;70.30;;;;;;4851399;29;20227;-65
2022/07/10 02:18:07;;;;;;;2.00;1.73;;;18.20;72.80;;;;;;4879919;29;20196;-65
2022/07/10 02:20:34;;;;;;;2.17;1.40;;;18.20;74.90;;;;;;4851272;29;20289;-65
2022/07/10 02:23:00;;;;;;;1.77;1.50;;;18.00;76.80;;;;;;4865955;29;20295;-65
2022/07/10 02:25:26;;;;;;;2.27;2.07;;;17.90;77.60;;;;;;4880934;29;20274;-65
2022/07/10 02:27:51;;;;;;;2.37;1.50;;;17.80;78.30;;;;;;4843490;29;20192;-65
2022/07/10 02:30:18;;;;;;;1.60;1.50;;;17.80;78.00;;;;;;4859983;29;20283;-65
2022/07/10 02:32:43;;;;;;;1.97;1.83;;;17.80;78.40;;;;;;4860497;29;20196;-64
2022/07/10 02:35:09;;;;;;;1.90;1.80;;;17.80;77.60;;;;;;4846514;29;20197;-65
2022/07/10 02:37:35;;;;;;;2.07;1.93;;;17.80;77.90;;;;;;4853818;29;20191;-65
2022/07/10 02:40:00;;;;;;;2.43;2.17;;;17.80;77.60;;;;;;4854522;29;20260;-65
2022/07/10 02:42:26;;;;;;;1.70;1.60;;;17.70;76.80;;;;;;4869614;29;20192;-65
2022/07/10 02:44:52;;;;;;;2.27;1.60;;;17.70;75.50;;;;;;4876154;29;20189;-65
2022/07/10 02:47:18;;;;;;;2.80;1.63;;;17.80;75.70;;;;;;4848095;29;20185;-65
2022/07/10 02:49:44;;;;;;;4.13;1.70;;;17.80;76.60;;;;;;4855271;29;20205;-65
2022/07/10 02:52:09;;;;;;;2.77;1.67;;;17.80;74.70;;;;;;4836766;29;20223;-65
2022/07/10 02:54:35;;;;;;;1.73;1.63;;;17.90;75.30;;;;;;4840000;29;20226;-65
2022/07/10 02:57:01;;;;;;;1.57;1.47;;;17.80;75.20;;;;;;4861826;29;20205;-65
2022/07/10 02:59:26;;;;;;;1.83;1.50;;;17.80;76.10;;;;;;4856900;29;20219;-65
2022/07/10 03:01:52;;;;;;;2.33;2.00;;;17.80;74.40;;;;;;4854376;29;20222;-65
2022/07/10 03:04:18;;;;;;;1.77;1.63;;;17.90;74.40;;;;;;4845001;29;20197;-65
2022/07/10 03:06:43;;;;;;;1.73;1.63;;;17.80;74.90;;;;;;4853748;29;20253;-65
2022/07/10 03:09:09;;;;;;;1.97;1.77;;;17.80;73.50;;;;;;4850571;29;20196;-65
2022/07/10 03:11:35;;;;;;;1.70;1.50;;;17.80;71.70;;;;;;4851403;29;20294;-65
2022/07/10 03:14:00;;;;;;;2.17;1.97;;;17.80;73.20;;;;;;4853813;29;20240;-65
2022/07/10 03:16:26;;;;;;;1.70;1.60;;;17.80;73.50;;;;;;4850945;29;20270;-65
2022/07/10 03:18:52;;;;;;;2.03;1.93;;;17.80;71.90;;;;;;4840285;29;20230;-65
2022/07/10 03:21:17;;;;;;;1.83;1.70;;;17.70;71.70;;;;;;4838434;29;20200;-65
2022/07/10 03:23:43;;;;;;;2.20;1.90;;;17.80;71.50;;;;;;4837515;29;20297;-65
2022/07/10 03:26:08;;;;;;;2.03;1.63;;;17.80;72.10;;;;;;4850817;29;20199;-65
2022/07/10 03:28:35;;;;;;;1.80;1.63;;;17.70;71.70;;;;;;4836452;29;20248;-65
2022/07/10 03:31:02;;;;;;;1.87;1.77;;;17.60;72.00;;;;;;4851054;29;20192;-65
2022/07/10 03:33:28;;;;;;;2.10;1.63;;;17.70;73.40;;;;;;4865523;29;20476;-65
2022/07/10 03:35:54;;;;;;;2.10;1.90;;;17.70;73.00;;;;;;4850110;29;20200;-65
2022/07/10 03:38:19;;;;;;;1.77;1.67;;;17.70;72.40;;;;;;4850707;29;20289;-65
2022/07/10 03:40:47;;;;;;;2.93;1.77;;;17.70;71.80;;;;;;4846124;29;20203;-65
2022/07/10 03:43:14;;;;;;;1.90;1.70;;;17.80;73.00;;;;;;4848726;29;20219;-65
2022/07/10 03:45:39;;;;;;;1.63;1.53;;;17.80;73.00;;;;;;4836468;29;20220;-65
2022/07/10 03:48:05;;;;;;;2.10;1.77;;;17.80;73.20;;;;;;4848420;29;20228;-65
2022/07/10 03:50:31;;;;;;;2.27;2.07;;;17.80;74.60;;;;;;4847648;29;20284;-65
2022/07/10 03:52:56;;;;;;;2.30;1.80;;;17.80;74.70;;;;;;4869115;29;20369;-65
2022/07/10 03:55:22;;;;;;;3.30;2.53;;;17.80;75.10;;;;;;4853964;29;20203;-65
2022/07/10 03:57:53;;;;;;;2.00;1.80;;;17.80;75.20;;;;;;4868869;29;20192;-65
2022/07/10 04:00:21;;;;;;;1.60;1.50;;;17.80;75.00;;;;;;4859915;29;20212;-65
2022/07/10 04:02:48;;;;;;;1.90;1.73;;;17.80;74.40;;;;;;4876818;29;20218;-63
2022/07/10 04:05:14;;;;;;;2.20;2.00;;;17.80;73.90;;;;;;4865513;29;20201;-65
2022/07/10 04:07:40;;;;;;;1.80;1.70;;;17.80;74.70;;;;;;4878811;29;20203;-65
2022/07/10 04:10:06;;;;;;;2.93;2.20;;;17.80;76.60;;;;;;4853311;29;20207;-65
2022/07/10 04:12:32;;;;;;;2.20;2.00;;;17.70;78.90;;;;;;4865756;29;20196;-65
2022/07/10 04:14:58;;;;;;;2.33;2.13;;;17.50;80.20;;;;;;4867817;29;20228;-65
2022/07/10 04:17:23;;;;;;;2.93;2.40;;;17.50;81.30;;;;;;4853462;29;20212;-65
2022/07/10 04:19:49;;;;;;;2.57;2.37;;;17.40;81.60;;;;;;4864336;29;20231;-65
2022/07/10 04:22:15;;;;;;;2.40;2.20;;;17.30;81.40;;;;;;4876970;29;20331;-65
2022/07/10 04:24:40;;;;;;;2.47;2.20;;;17.30;81.60;;;;;;4872618;29;20231;-65
2022/07/10 04:27:06;;;;;;;2.50;2.30;;;17.30;81.70;;;;;;4869392;29;20203;-65
2022/07/10 04:29:32;;;;;;;2.40;2.20;;;17.20;81.70;;;;;;4861777;29;20247;-65
2022/07/10 04:31:58;;;;;;;2.43;2.23;;;17.20;82.20;;;;;;4839449;29;20257;-65
2022/07/10 04:34:24;;;;;;;2.10;1.97;;;17.30;81.70;;;;;;4861082;29;20196;-64
2022/07/10 04:36:50;;;;;;;2.23;2.03;;;17.30;81.10;;;;;;4860114;29;20192;-65
2022/07/10 04:39:15;;;;;;;4.93;2.83;;;17.20;78.20;;;;;;4874730;29;20229;-63
2022/07/10 04:41:41;;;;;;;2.83;1.83;;;17.10;79.20;;;;;;4865842;29;20197;-65
2022/07/10 04:44:07;;;;;;;2.30;2.10;;;17.10;78.30;;;;;;4846142;29;20192;-65
2022/07/10 04:46:33;;;;;;;2.90;2.20;;;17.20;79.20;;;;;;4866845;29;20200;-64
2022/07/10 04:48:59;;;;;;;2.13;2.00;;;17.10;77.70;;;;;;4870496;29;20199;-65
2022/07/10 04:51:25;;;;;;;2.40;2.07;;;17.10;78.00;;;;;;4862658;29;20192;-65
2022/07/10 04:53:50;;;;;;;5.70;2.57;;;17.20;77.70;;;;;;4880596;29;20195;-65
2022/07/10 04:56:16;;;;;;;5.00;2.23;;;17.20;77.50;;;;;;4862567;29;20202;-65
2022/07/10 04:58:42;;;;;;;2.80;2.50;;;17.00;77.60;;;;;;4843021;29;20273;-65
2022/07/10 05:01:07;;;;;;;2.20;1.97;;;17.20;78.60;;;;;;4848350;29;20243;-65
2022/07/10 05:03:33;;;;;;;4.70;1.90;;;17.30;79.60;;;;;;4852646;29;20192;-65
2022/07/10 05:05:59;;;;;;;3.27;2.33;;;17.30;79.60;;;;;;4873256;29;20198;-64
2022/07/10 05:08:24;;;;;;;2.53;2.33;;;17.30;80.20;;;;;;4860372;29;20226;-64
2022/07/10 05:10:50;;;;;;;2.80;2.50;;;17.40;79.60;;;;;;4846903;29;20272;-64
2022/07/10 05:13:16;;;;;;;2.43;2.07;;;17.40;79.70;;;;;;4865740;29;20275;-64
2022/07/10 05:15:41;;;;;;;2.23;2.00;;;17.40;79.80;;;;;;4850832;29;20211;-64
2022/07/10 05:18:07;;;;;;;2.40;2.20;;;17.40;79.60;;;;;;4851899;29;20212;-64
2022/07/10 05:20:35;;;;;;;2.33;2.13;;;17.40;78.20;;;;;;4851594;29;20196;-64
2022/07/10 05:23:01;;;;;;;3.40;2.07;;;17.50;79.50;;;;;;4872597;29;20212;-63
2022/07/10 05:25:30;;;;;;;2.00;1.90;;;17.50;78.90;;;;;;4882170;29;20248;-63
2022/07/10 05:27:56;;;;;;;2.57;2.37;;;17.50;78.70;;;;;;4866440;29;20299;-63
2022/07/10 05:30:21;;;;;;;3.70;2.20;;;17.60;79.10;;;;;;4849323;29;20325;-65
2022/07/10 05:32:47;;;;;;;2.90;2.60;;;17.60;79.20;;;;;;4839013;29;20199;-65
2022/07/10 05:35:14;;;;;;;2.90;2.30;;;17.60;78.60;;;;;;4866785;29;20236;-65
2022/07/10 05:37:40;;;;;;;3.53;2.30;;;17.60;78.10;;;;;;4879274;29;20225;-65
2022/07/10 05:40:07;;;;;;;2.40;2.10;;;17.60;78.50;;;;;;4866788;29;20222;-65
2022/07/10 05:42:34;;;;;;;5.23;2.90;;;17.60;78.60;;;;;;4882142;29;20196;-65
2022/07/10 05:45:00;;;;;;;2.73;2.50;;;17.60;77.60;;;;;;4882670;29;20195;-65
2022/07/10 05:47:25;;;;;;;3.33;2.07;;;17.60;78.30;;;;;;4860656;29;20200;-65
2022/07/10 05:49:51;;;;;;;6.93;2.67;;;17.70;76.80;;;;;;4867411;29;20211;-65
2022/07/10 05:52:16;;;;;;;4.53;2.77;;;17.70;76.70;;;;;;4848028;29;20219;-63
2022/07/10 05:54:42;;;;;;;4.17;2.53;;;17.70;77.00;;;;;;4849033;29;20204;-64
2022/07/10 05:57:08;;;;;;;3.23;2.40;;;17.70;77.10;;;;;;4848640;29;20224;-65
2022/07/10 05:59:34;;;;;;;2.67;2.47;;;17.70;78.10;;;;;;4851942;29;20306;-64
2022/07/10 06:02:01;;;;;;;2.60;2.40;;;17.60;78.90;;;;;;4884213;29;20234;-63
2022/07/10 06:04:27;;;;;;;2.57;2.37;;;17.60;79.30;;;;;;4876721;29;20197;-63
2022/07/10 06:06:53;;;;;;;2.77;2.30;;;17.60;79.50;;;;;;4876555;29;20196;-64
2022/07/10 06:09:18;;;;;;;4.23;2.50;;;17.70;79.50;;;;;;4848275;29;20256;-64
2022/07/10 06:11:46;;;;;;;4.77;2.70;;;17.70;80.90;;;;;;4851496;29;20226;-65
2022/07/10 06:14:12;;;;;;;2.50;2.30;;;17.60;82.10;;;;;;4848687;29;20283;-63
2022/07/10 06:16:38;;;;;;;3.60;3.13;;;17.60;82.20;;;;;;4868473;29;20215;-63
2022/07/10 06:19:03;;;;;;;3.00;2.80;;;17.60;80.70;;;;;;4856900;29;20216;-63
2022/07/10 06:21:29;;;;;;;3.10;2.37;;;17.60;81.00;;;;;;4845484;29;20300;-63
2022/07/10 06:23:55;;;;;;;4.23;2.60;;;17.50;77.80;;;;;;4849831;29;20287;-63
2022/07/10 06:26:20;;;;;;;2.83;2.57;;;17.40;78.40;;;;;;4856946;29;20252;-63
2022/07/10 06:28:46;;;;;;;2.83;2.40;;;17.30;77.90;;;;;;4862109;29;20250;-63
2022/07/10 06:31:12;;;;;;;2.77;2.57;;;17.40;77.30;;;;;;4849632;29;20196;-63
2022/07/10 06:33:38;;;;;;;2.67;2.47;;;17.50;78.90;;;;;;4864370;29;20196;-63
2022/07/10 06:36:04;;;;;;;2.73;2.50;;;17.50;77.60;;;;;;4866431;29;20207;-63
2022/07/10 06:38:30;;;;;;;2.67;2.47;;;17.50;80.20;;;;;;4843566;29;20235;-63
2022/07/10 06:40:56;;;;;;;2.97;2.07;;;17.50;80.50;;;;;;4881828;29;20192;-63
2022/07/10 06:43:21;;;;;;;3.80;2.60;;;17.50;81.10;;;;;;4870361;29;20242;-63
2022/07/10 06:45:47;;;;;;;2.87;2.67;;;17.50;81.30;;;;;;4852971;29;20207;-63
2022/07/10 06:48:14;;;;;;;2.40;2.20;;;17.60;80.40;;;;;;4849057;29;20205;-63
2022/07/10 06:50:40;;;;;;;3.87;2.77;;;17.50;80.00;;;;;;4842343;29;20252;-63
2022/07/10 06:53:06;;;;;;;3.23;2.83;;;17.60;81.20;;;;;;4865543;29;20188;-63
2022/07/10 06:55:33;;;;;;;2.87;2.17;;;17.70;80.80;;;;;;4885085;29;20192;-64
2022/07/10 06:57:58;;;;;;;2.53;2.33;;;17.60;78.30;;;;;;4865779;29;20195;-64
2022/07/10 07:00:25;;;;;;;2.83;2.63;;;17.60;78.50;;;;;;4851375;29;20234;-64
2022/07/10 07:02:51;;;;;;;4.47;2.63;;;17.60;80.20;;;;;;4884323;29;20211;-63
2022/07/10 07:05:17;;;;;;;5.37;3.30;;;17.70;79.70;;;;;;4880762;29;20192;-63
2022/07/10 07:07:42;;;;;;;5.07;2.70;;;17.80;80.00;;;;;;4876290;29;20220;-63
2022/07/10 07:10:09;;;;;;;3.43;2.87;;;17.70;79.70;;;;;;4860826;29;20249;-63
2022/07/10 07:12:35;;;;;;;5.63;2.60;;;17.80;78.90;;;;;;4862282;29;20252;-63
2022/07/10 07:15:01;;;;;;;2.87;2.57;;;17.80;79.00;;;;;;4875339;29;20200;-63
2022/07/10 07:17:46;;;;;;;4.27;2.97;;;17.80;78.10;;;;;;4840942;29;20208;-63
2022/07/10 07:23:09;;;;;;;4.10;2.70;;;17.90;77.80;;;;;;4871137;29;20244;-63
2022/07/10 07:25:35;;;;;;;4.97;2.37;;;17.90;76.60;;;;;;4856979;29;20200;-65
2022/07/10 07:28:01;;;;;;;2.63;2.20;;;17.80;76.10;;;;;;4851596;29;20253;-66
2022/07/10 07:30:26;;;;;;;5.37;2.17;;;17.90;75.70;;;;;;4859318;29;20310;-65
2022/07/10 07:32:52;;;;;;;3.33;2.33;;;17.90;75.10;;;;;;4853136;29;20204;-65
2022/07/10 07:35:18;;;;;;;2.10;1.77;;;17.90;75.50;;;;;;4857694;29;20203;-65
2022/07/10 07:37:46;;;;;;;2.20;2.00;;;17.90;74.50;;;;;;4861188;29;20227;-65
2022/07/10 07:40:19;;;;;;;2.47;1.93;;;17.90;75.40;;;;;;4873981;29;20224;-65
2022/07/10 07:42:46;;;;;;;1.87;1.77;;;18.00;75.30;;;;;;4878353;29;20211;-66
2022/07/10 07:45:11;;;;;;;2.70;2.27;;;18.00;74.40;;;;;;4876666;29;20285;-64
2022/07/10 07:47:49;;;;;;;3.10;2.00;;;18.00;75.80;;;;;;4879488;29;20271;-65
2022/07/10 07:50:35;;;;;;;2.57;1.70;;;18.00;74.60;;;;;;4883700;29;20218;-65
2022/07/10 07:53:02;;;;;;;2.90;2.03;;;18.10;73.00;;;;;;4891783;29;20203;-64
2022/07/10 07:55:29;;;;;;;2.60;2.17;;;18.20;72.70;;;;;;4900476;29;20214;-64
2022/07/10 07:57:56;;;;;;;1.80;1.70;;;18.20;72.90;;;;;;4875937;29;20215;-64
2022/07/10 08:00:24;;;;;;;2.67;1.90;;;18.30;72.60;;;;;;4886213;29;20227;-64
2022/07/10 08:02:50;;;;;;;2.30;1.70;;;18.30;73.10;;;;;;4877764;29;20192;-64
2022/07/10 08:05:16;;;;;;;2.40;2.20;;;18.40;72.30;;;;;;4843303;29;20195;-68
2022/07/10 08:07:44;;;;;;;2.57;1.63;;;18.60;72.60;;;;;;4875837;29;20206;-68
2022/07/10 08:10:15;;;;;;;2.67;1.87;;;18.70;72.90;;;;;;4878309;29;20204;-68
2022/07/10 08:12:42;;;;;;;3.60;2.20;;;18.80;71.10;;;;;;4884178;29;20200;-65
2022/07/10 08:15:09;;;;;;;1.73;1.63;;;18.90;70.00;;;;;;4865013;29;20200;-64
2022/07/10 08:17:35;;;;;;;4.53;2.07;;;18.90;67.90;;;;;;4863000;29;20195;-64
2022/07/10 08:20:02;;;;;;;2.67;1.77;;;19.00;69.80;;;;;;4868066;29;20220;-64
2022/07/10 08:22:27;;;;;;;3.37;1.53;;;19.10;69.20;;;;;;4860215;29;20284;-64
2022/07/10 08:24:53;;;;;;;2.37;1.70;;;19.20;68.40;;;;;;4860269;29;20296;-64
2022/07/10 08:27:19;;;;;;;2.63;1.50;;;19.30;68.40;;;;;;4846537;29;20196;-64
2022/07/10 08:29:44;;;;;;;1.97;1.57;;;19.30;67.70;;;;;;4845316;29;20258;-63
2022/07/10 08:32:10;;;;;;;2.03;1.87;;;19.40;68.10;;;;;;4843853;29;20219;-63
2022/07/10 08:34:36;;;;;;;2.50;1.73;;;19.60;69.00;;;;;;4847803;29;20197;-63
2022/07/10 08:37:02;;;;;;;2.47;2.17;;;19.60;68.10;;;;;;4851257;29;20199;-63
2022/07/10 08:39:28;;;;;;;2.63;2.00;;;19.70;66.70;;;;;;4854329;29;20226;-63
2022/07/10 08:41:54;;;;;;;3.27;1.70;;;19.80;66.20;;;;;;4871888;29;20191;-64
2022/07/10 08:44:21;;;;;;;2.10;1.67;;;19.80;65.70;;;;;;4846769;29;20193;-65
2022/07/10 08:46:47;;;;;;;1.73;1.57;;;19.80;63.20;;;;;;4887624;29;20216;-65
2022/07/10 08:49:15;;;;;;;1.73;1.40;;;19.90;63.30;;;;;;4852505;29;20224;-65
2022/07/10 08:51:53;;;;;;;3.03;1.90;;;20.00;62.90;;;;;;4867701;29;20195;-66
2022/07/10 08:54:20;;;;;;;2.67;1.97;;;20.10;63.20;;;;;;4885670;29;20190;-65
2022/07/10 08:56:47;;;;;;;1.40;1.30;;;20.20;64.90;;;;;;4882880;29;20278;-65
2022/07/10 08:59:14;;;;;;;2.07;1.53;;;20.20;63.80;;;;;;4878762;29;20215;-65
2022/07/10 09:01:40;;;;;;;1.20;1.10;;;20.30;63.00;;;;;;4898312;29;20275;-63
2022/07/10 09:04:05;;;;;;;1.30;1.20;;;20.40;65.00;;;;;;4875433;29;20278;-63
2022/07/10 09:06:31;;;;;;;1.53;1.43;;;20.50;62.70;;;;;;4882912;29;20242;-63
2022/07/10 09:09:07;;;;;;;1.30;1.20;;;20.60;64.10;;;;;;4866953;29;20200;-62
2022/07/10 09:11:34;;;;;;;1.43;1.33;;;20.70;64.40;;;;;;4869282;29;20202;-64
2022/07/10 09:14:04;;;;;;;1.80;1.23;;;20.80;61.90;;;;;;4882559;29;20188;-64
2022/07/10 09:16:35;;;;;;;1.73;1.30;;;20.80;62.70;;;;;;4874538;29;20196;-64
2022/07/10 09:19:22;;;;;;;1.30;1.20;;;20.80;61.50;;;;;;4864111;29;20216;-64
2022/07/10 09:21:50;;;;;;;1.33;1.23;;;20.90;61.10;;;;;;4878480;29;20188;-64
2022/07/10 09:24:19;;;;;;;1.40;1.30;;;21.00;63.30;;;;;;4882169;29;20188;-64
2022/07/10 09:26:53;;;;;;;1.63;1.17;;;21.00;62.70;;;;;;4902114;29;20190;-65
2022/07/10 09:29:19;;;;;;;1.13;1.07;;;21.00;62.80;;;;;;4893454;29;20242;-64
2022/07/10 09:31:53;;;;;;;1.17;1.07;;;21.20;59.00;;;;;;4862167;29;20208;-64
2022/07/10 09:34:41;;;;;;;1.93;1.17;;;21.20;58.80;;;;;;4880809;29;20223;-65
2022/07/10 09:37:27;;;;;;;1.43;1.33;;;21.30;57.50;;;;;;4872858;29;20206;-65
2022/07/10 09:39:59;;;;;;;1.33;1.10;;;21.20;58.50;;;;;;4876064;29;20216;-64
2022/07/10 09:42:31;;;;;;;2.07;1.30;;;21.30;57.80;;;;;;4882655;29;20196;-63
2022/07/10 09:45:12;;;;;;;1.53;1.43;;;21.30;59.20;;;;;;4881851;29;20256;-64
2022/07/10 09:47:42;;;;;;;1.80;1.70;;;21.40;62.60;;;;;;4898841;29;20187;-63
2022/07/10 09:50:36;;;;;;;1.80;1.70;;;21.60;63.50;;;;;;4855959;29;20207;-65
2022/07/10 09:53:06;;;;;;;1.43;1.33;;;21.70;64.80;;;;;;4855866;29;20227;-63
2022/07/10 09:55:34;;;;;;;1.53;1.43;;;21.70;65.20;;;;;;4859864;29;20211;-64
2022/07/10 09:58:08;;;;;;;1.53;1.43;;;21.70;65.30;;;;;;4860423;29;20295;-65
2022/07/10 10:00:35;;;;;;;1.60;1.50;;;21.60;64.80;;;;;;4855697;29;20235;-65
2022/07/10 10:03:02;;;;;;;1.27;1.20;;;21.60;67.00;;;;;;4882816;29;20261;-65
2022/07/10 10:05:38;;;;;;;1.60;1.50;;;21.60;66.50;;;;;;4867662;29;20195;-65
2022/07/10 10:08:12;;;;;;;1.50;1.40;;;21.80;65.50;;;;;;4889078;29;20188;-64
2022/07/10 10:10:43;;;;;;;2.07;1.73;;;21.70;64.40;;;;;;4881297;29;20196;-66
2022/07/10 10:13:10;;;;;;;1.77;1.43;;;21.80;64.10;;;;;;4877081;29;20203;-66
2022/07/10 10:15:37;;;;;;;1.63;1.53;;;21.80;63.90;;;;;;4855348;29;20203;-64
2022/07/10 10:18:03;;;;;;;2.13;1.30;;;21.80;65.50;;;;;;4885510;29;20254;-64
2022/07/10 10:20:38;;;;;;;1.73;1.20;;;21.80;63.40;;;;;;4877154;29;20322;-64
2022/07/10 10:23:12;;;;;;;1.80;1.70;;;21.80;64.60;;;;;;4879569;29;20226;-65
2022/07/10 10:25:38;;;;;;;5.47;1.80;;;21.70;65.60;;;;;;4901974;29;20194;-64
2022/07/10 10:28:07;;;;;;;1.73;1.63;;;21.70;65.40;;;;;;4870151;29;20200;-65
2022/07/10 10:30:43;;;;;;;16.17;15.17;;;21.70;64.90;;;;;;4885128;29;20223;-65
2022/07/10 10:33:42;;;;;;;30.73;28.37;;;21.70;64.90;;;;;;4882308;29;20206;-65
2022/07/10 10:36:08;;;;;;;5.40;5.00;;;21.70;61.40;;;;;;4902063;29;20287;-64
2022/07/10 10:38:48;;;;;;;1.80;1.70;;;21.70;62.10;;;;;;4874352;29;20291;-65
2022/07/10 10:41:36;;;;;;;1.87;1.67;;;21.70;63.90;;;;;;4884952;29;20191;-65
2022/07/10 10:44:16;;;;;;;4.00;1.80;;;21.50;65.10;;;;;;4884066;29;20233;-64
2022/07/10 10:46:53;;;;;;;2.13;1.83;;;21.40;63.60;;;;;;4885379;29;20286;-65
2022/07/10 10:49:21;;;;;;;1.60;1.50;;;21.30;66.00;;;;;;4903136;29;20315;-65
2022/07/10 10:52:13;;;;;;;3.53;1.70;;;21.30;67.90;;;;;;4888050;29;20199;-65
2022/07/10 10:55:08;;;;;;;7.63;6.83;;;21.20;67.90;;;;;;4894667;29;20246;-65
2022/07/10 10:57:36;;;;;;;249.50;222.20;;;21.00;66.60;;;;;;4851185;29;20271;-65
2022/07/10 11:00:06;;;;;;;199.43;166.30;;;21.00;74.60;;;;;;4876002;29;20310;-66
2022/07/10 11:02:34;;;;;;;59.70;51.03;;;20.80;71.30;;;;;;4853439;29;20494;-65
2022/07/10 11:05:13;;;;;;;34.77;30.07;;;20.60;76.20;;;;;;4880481;29;20202;-66
2022/07/10 11:08:00;;;;;;;10.30;9.33;;;20.50;79.70;;;;;;4884420;29;20274;-65
2022/07/10 11:10:45;;;;;;;3.60;3.30;;;20.50;63.90;;;;;;4900708;29;20240;-66
2022/07/10 11:13:15;;;;;;;3.23;2.83;;;20.50;68.10;;;;;;4884960;29;20224;-65
2022/07/10 11:15:42;;;;;;;3.57;3.27;;;20.40;63.90;;;;;;4900761;29;20192;-65
2022/07/10 11:18:19;;;;;;;3.30;2.97;;;20.40;60.40;;;;;;4901513;29;20195;-65
2022/07/10 11:20:49;;;;;;;2.17;1.97;;;20.50;60.90;;;;;;4870375;29;20192;-66
2022/07/10 11:23:30;;;;;;;1.80;1.70;;;20.70;60.80;;;;;;4866452;29;20224;-65
2022/07/10 11:26:08;;;;;;;2.60;2.40;;;20.80;63.30;;;;;;4897356;29;20227;-65
2022/07/10 11:28:53;;;;;;;1.70;1.60;;;21.10;52.00;;;;;;4886566;29;20329;-66
2022/07/10 11:31:21;;;;;;;1.60;1.50;;;21.10;51.30;;;;;;4872888;29;20196;-65
2022/07/10 11:33:48;;;;;;;2.40;2.20;;;21.20;52.10;;;;;;4876915;29;20192;-65
2022/07/10 11:36:16;;;;;;;2.00;1.80;;;21.10;51.10;;;;;;4892182;29;20203;-65
2022/07/10 11:38:43;;;;;;;1.50;1.40;;;21.20;51.90;;;;;;4888114;29;20228;-65
2022/07/10 11:41:28;;;;;;;1.77;1.67;;;21.20;53.00;;;;;;4876354;29;20344;-66
2022/07/10 11:44:02;;;;;;;2.50;1.40;;;21.40;49.20;;;;;;4867121;29;20208;-66
2022/07/10 11:46:30;;;;;;;1.90;1.80;;;21.50;51.90;;;;;;4872730;29;20199;-66
2022/07/10 11:48:58;;;;;;;1.50;1.40;;;21.70;48.60;;;;;;4880610;29;20196;-65
2022/07/10 11:51:25;;;;;;;1.80;1.50;;;21.80;49.60;;;;;;4878931;29;20282;-66
2022/07/10 11:53:57;;;;;;;2.57;1.40;;;21.80;48.10;;;;;;4858313;29;20213;-66
2022/07/10 11:56:24;;;;;;;1.50;1.40;;;22.10;49.80;;;;;;4867902;29;20200;-66
2022/07/10 11:58:58;;;;;;;1.30;1.20;;;22.40;51.70;;;;;;4890639;29;20252;-66
2022/07/10 12:01:24;;;;;;;2.87;1.77;;;22.50;49.10;;;;;;4887567;29;20229;-66
2022/07/10 12:04:08;;;;;;;1.40;1.30;;;22.50;52.20;;;;;;4889333;29;20212;-65
2022/07/10 12:06:36;;;;;;;1.40;1.30;;;22.50;50.00;;;;;;4869034;29;20227;-66
2022/07/10 12:09:07;;;;;;;1.70;1.60;;;22.40;49.10;;;;;;4851793;29;20207;-65
2022/07/10 12:11:34;;;;;;;1.40;1.30;;;22.30;47.60;;;;;;4885805;29;20202;-65
2022/07/10 12:14:18;;;;;;;1.93;1.83;;;22.30;50.20;;;;;;4866095;29;20200;-66
2022/07/10 12:16:52;;;;;;;1.57;1.47;;;22.20;52.40;;;;;;4880983;29;20203;-66
2022/07/10 12:19:21;;;;;;;1.80;1.70;;;22.20;45.40;;;;;;4900459;29;20219;-66
2022/07/10 12:21:47;;;;;;;2.13;1.37;;;22.00;47.60;;;;;;4888004;29;20231;-66
2022/07/10 12:24:16;;;;;;;1.67;1.43;;;22.00;45.90;;;;;;4865649;29;20224;-66
2022/07/10 12:26:44;;;;;;;1.40;1.30;;;21.90;44.60;;;;;;4877302;29;20270;-65
2022/07/10 12:29:22;;;;;;;1.70;1.53;;;21.80;49.30;;;;;;4881470;29;20236;-66
2022/07/10 12:31:50;;;;;;;1.43;1.33;;;21.80;55.70;;;;;;4877302;29;20238;-66
2022/07/10 12:34:17;;;;;;;1.27;1.17;;;21.80;55.10;;;;;;4883455;29;20195;-65
2022/07/10 12:36:51;;;;;;;1.80;1.60;;;21.80;54.70;;;;;;4879512;29;20275;-66
2022/07/10 12:39:24;;;;;;;1.37;1.27;;;22.00;55.90;;;;;;4879693;29;20224;-67
2022/07/10 12:42:08;;;;;;;1.63;1.30;;;22.00;52.60;;;;;;4876997;29;20196;-66
2022/07/10 12:44:40;;;;;;;1.47;1.37;;;22.20;51.40;;;;;;4879958;29;20267;-66
2022/07/10 12:47:12;;;;;;;1.80;1.70;;;22.20;50.80;;;;;;4883132;29;20192;-66
2022/07/10 12:50:04;;;;;;;1.27;1.17;;;22.40;51.00;;;;;;4899711;29;20274;-66
2022/07/10 12:52:32;;;;;;;3.97;1.47;;;23.00;52.70;;;;;;4880484;29;20196;-66
2022/07/10 12:55:17;;;;;;;1.13;1.03;;;23.20;52.20;;;;;;4880462;29;20199;-66
2022/07/10 12:57:53;;;;;;;1.87;1.30;;;23.70;50.70;;;;;;4877710;29;20204;-65